Time;durP1;ratioP1;P1;durP2;ratioP2;P2;SDS_P1;SDS_P2;PMS_P1;PMS_P2;Temp;Humidity;BMP_temperature;BMP_pressure;BME280_temperature;BME280_humidity;BME280_pressure;Samples;Min_cycle;Max_cycle;Signal;HPM_P1;HPM_P2
2022/06/22 00:01:03;;;;;;;1999.90;999.90;;;19.10;99.90;;;;;;4956542;29;20023;-78
2022/06/22 00:03:30;;;;;;;1999.90;999.90;;;19.10;99.90;;;;;;4938067;29;20090;-75
2022/06/22 00:05:56;;;;;;;1999.90;999.90;;;19.10;99.90;;;;;;4956172;29;20093;-77
2022/06/22 00:08:27;;;;;;;1999.90;999.90;;;19.00;99.90;;;;;;4956281;29;20426;-74
2022/06/22 00:11:07;;;;;;;1999.90;999.90;;;19.00;99.90;;;;;;4938691;29;20118;-75
2022/06/22 00:13:33;;;;;;;1999.90;999.90;;;18.90;99.90;;;;;;4956423;29;20054;-78
2022/06/22 00:16:05;;;;;;;1999.90;999.90;;;19.00;99.90;;;;;;4956000;29;20312;-74
2022/06/22 00:18:33;;;;;;;1999.90;999.90;;;19.00;99.90;;;;;;4955128;29;20117;-77
2022/06/22 00:21:04;;;;;;;1999.90;999.90;;;19.10;99.90;;;;;;4955864;29;20137;-78
2022/06/22 00:23:42;;;;;;;1999.90;999.90;;;19.10;99.90;;;;;;4938897;29;20023;-78
2022/06/22 00:26:26;;;;;;;1999.90;999.90;;;19.10;99.90;;;;;;4955843;29;20055;-77
2022/06/22 00:29:20;;;;;;;1999.90;999.90;;;19.00;99.90;;;;;;4955601;29;20483;-74
2022/06/22 00:31:49;;;;;;;1999.90;999.90;;;19.10;99.90;;;;;;4945475;28;20402;-77
2022/06/22 00:34:19;;;;;;;1999.90;999.90;;;18.90;99.90;;;;;;4955818;29;20098;-77
2022/06/22 00:37:01;;;;;;;1999.90;999.90;;;18.90;99.90;;;;;;4955845;29;20032;-74
2022/06/22 00:39:30;;;;;;;1999.90;999.90;;;18.80;99.90;;;;;;4955853;29;20035;-74
2022/06/22 00:42:21;;;;;;;1999.90;999.90;;;18.80;99.90;;;;;;4956105;28;20110;-77
2022/06/22 00:45:02;;;;;;;1999.90;999.90;;;18.70;99.90;;;;;;4955502;29;20094;-78
2022/06/22 00:47:42;;;;;;;1999.90;999.90;;;18.70;99.90;;;;;;4955468;29;20031;-78
2022/06/22 00:50:15;;;;;;;1999.90;999.90;;;18.60;99.90;;;;;;4955765;29;20153;-77
2022/06/22 00:52:44;;;;;;;;;;;18.60;99.90;;;;;;4955574;28;20027;-77
2022/06/22 00:55:30;;;;;;;1999.90;999.90;;;18.60;99.90;;;;;;4955561;29;19916;-74
2022/06/22 00:58:23;;;;;;;1999.90;999.90;;;18.60;99.90;;;;;;4955599;29;20035;-74
2022/06/22 01:01:18;;;;;;;1999.90;999.90;;;18.60;99.90;;;;;;4955315;29;20471;-77
2022/06/22 01:04:03;;;;;;;1999.90;999.90;;;18.60;99.90;;;;;;4955458;29;20031;-77
2022/06/22 01:06:33;;;;;;;1999.90;999.90;;;18.60;99.90;;;;;;4938041;29;20039;-77
2022/06/22 01:09:03;;;;;;;1999.90;999.90;;;18.60;99.90;;;;;;4954321;29;20118;-74
2022/06/22 01:12:25;;;;;;;1999.90;999.90;;;18.60;99.90;;;;;;4954737;29;20027;-77
2022/06/22 01:14:56;;;;;;;1999.90;999.90;;;18.50;99.90;;;;;;4936842;29;20086;-77
2022/06/22 01:17:54;;;;;;;1999.90;999.90;;;18.50;99.90;;;;;;4954914;29;20027;-77
2022/06/22 01:20:53;;;;;;;1999.90;999.90;;;18.60;99.90;;;;;;4954548;29;20034;-74
2022/06/22 01:23:37;;;;;;;1999.90;999.90;;;18.60;99.90;;;;;;4955055;29;20023;-74
2022/06/22 01:26:33;;;;;;;1999.90;999.90;;;18.70;99.90;;;;;;4955135;29;20111;-74
2022/06/22 01:29:10;;;;;;;1999.90;999.90;;;18.60;99.90;;;;;;4954775;29;20027;-74
2022/06/22 01:31:41;;;;;;;1999.90;999.90;;;18.60;99.90;;;;;;4954518;29;20114;-77
2022/06/22 01:34:15;;;;;;;1999.90;999.90;;;18.70;99.90;;;;;;4954648;29;20031;-74
2022/06/22 01:36:41;;;;;;;1999.90;999.90;;;18.70;99.90;;;;;;4954593;29;20019;-78
2022/06/22 01:39:11;;;;;;;1999.90;999.90;;;18.80;99.90;;;;;;4942190;29;20037;-74
2022/06/22 01:41:55;;;;;;;1999.90;999.90;;;18.80;99.90;;;;;;4954971;28;20445;-77
2022/06/22 01:44:33;;;;;;;1999.90;999.90;;;18.70;99.90;;;;;;4937161;29;20398;-77
2022/06/22 01:47:11;;;;;;;1999.90;999.90;;;18.80;99.90;;;;;;4926519;29;20031;-74
2022/06/22 01:49:44;;;;;;;1999.90;999.90;;;18.80;99.90;;;;;;4954532;29;20236;-74
2022/06/22 01:52:45;;;;;;;1999.90;999.90;;;18.80;99.90;;;;;;4953980;29;20049;-74
2022/06/22 01:55:16;;;;;;;1999.90;999.90;;;18.80;99.90;;;;;;4951291;29;20138;-77
2022/06/22 01:57:49;;;;;;;1999.90;999.90;;;18.80;99.90;;;;;;4956091;29;20045;-78
2022/06/22 02:00:18;;;;;;;1999.90;999.90;;;18.80;99.90;;;;;;4955930;29;20066;-74
2022/06/22 02:03:26;;;;;;;1999.90;999.90;;;18.70;99.90;;;;;;4954453;29;20086;-73
2022/06/22 02:06:00;;;;;;;1999.90;999.90;;;18.80;99.90;;;;;;4951329;28;20035;-74
2022/06/22 02:08:31;;;;;;;1999.90;999.90;;;18.80;99.90;;;;;;4954757;29;20039;-74
2022/06/22 02:11:04;;;;;;;1999.90;999.90;;;18.80;99.90;;;;;;4954343;29;20023;-77
2022/06/22 02:13:45;;;;;;;1999.90;999.90;;;18.80;99.90;;;;;;4954275;29;20106;-73
2022/06/22 02:16:17;;;;;;;1999.90;999.90;;;18.80;99.90;;;;;;4954179;29;20078;-78
2022/06/22 02:18:50;;;;;;;1999.90;999.90;;;18.80;99.90;;;;;;4954036;29;20039;-77
2022/06/22 02:21:26;;;;;;;1999.90;999.90;;;18.70;99.90;;;;;;4943269;29;20019;-73
2022/06/22 02:24:07;;;;;;;1999.90;999.90;;;18.70;99.90;;;;;;4954495;29;20027;-74
2022/06/22 02:26:51;;;;;;;1999.90;999.90;;;18.70;99.90;;;;;;4956748;28;20375;-73
2022/06/22 02:29:21;;;;;;;1999.90;999.90;;;18.70;99.90;;;;;;4959823;29;20530;-74
2022/06/22 02:31:47;;;;;;;1999.90;999.90;;;18.70;99.90;;;;;;4958083;29;20098;-73
2022/06/22 02:34:16;;;;;;;1999.90;999.90;;;18.70;99.90;;;;;;4958107;29;20387;-73
2022/06/22 02:36:45;;;;;;;1999.90;999.90;;;18.60;99.90;;;;;;4958001;29;20055;-77
2022/06/22 02:39:13;;;;;;;1999.90;999.90;;;18.60;99.90;;;;;;4958196;29;20554;-71
2022/06/22 02:44:31;;;;;;;1999.90;999.90;;;18.60;99.90;;;;;;4958054;29;20106;-77
2022/06/22 02:47:42;;;;;;;1999.90;999.90;;;18.60;99.90;;;;;;4958080;29;20041;-78
2022/06/22 02:50:26;;;;;;;1999.90;999.90;;;18.60;99.90;;;;;;4958911;29;20107;-78
2022/06/22 02:52:55;;;;;;;1999.90;999.90;;;18.60;99.90;;;;;;4957443;28;20520;-72
2022/06/22 02:55:24;;;;;;;1999.90;999.90;;;18.60;99.90;;;;;;4958175;29;20059;-78
2022/06/22 02:57:53;;;;;;;1999.90;999.90;;;18.60;99.90;;;;;;4957813;29;20031;-78
2022/06/22 03:00:38;;;;;;;1999.90;999.90;;;18.60;99.90;;;;;;4957067;29;20039;-72
2022/06/22 03:03:12;;;;;;;1999.90;999.90;;;18.60;99.90;;;;;;4940400;29;20027;-71
2022/06/22 03:05:41;;;;;;;1999.90;999.90;;;18.60;99.90;;;;;;4940489;29;20086;-72
2022/06/22 03:08:09;;;;;;;1999.90;999.90;;;18.50;99.90;;;;;;4957450;29;20063;-77
2022/06/22 03:10:54;;;;;;;1999.90;999.90;;;18.40;99.90;;;;;;4962995;29;20030;-72
2022/06/22 03:13:25;;;;;;;1999.90;999.90;;;18.40;99.90;;;;;;4957795;29;20024;-77
2022/06/22 03:15:52;;;;;;;1999.90;999.90;;;18.40;99.90;;;;;;4957269;29;20031;-77
2022/06/22 03:18:26;;;;;;;1999.90;999.90;;;18.40;99.90;;;;;;4957251;29;20027;-77
2022/06/22 03:20:56;;;;;;;1999.90;999.90;;;18.40;99.90;;;;;;4956658;29;20038;-74
2022/06/22 03:23:54;;;;;;;1999.90;999.90;;;18.30;99.90;;;;;;4957560;29;20054;-76
2022/06/22 03:26:27;;;;;;;1999.90;999.90;;;18.30;99.90;;;;;;4915764;29;20490;-73
2022/06/22 03:29:08;;;;;;;1999.90;999.90;;;18.40;99.90;;;;;;4941640;29;20058;-76
2022/06/22 03:31:48;;;;;;;1999.90;999.90;;;18.30;99.90;;;;;;4957147;29;20118;-73
2022/06/22 03:34:19;;;;;;;1999.90;999.90;;;18.40;99.90;;;;;;4956938;29;20038;-76
2022/06/22 03:36:53;;;;;;;1999.90;999.90;;;18.40;99.90;;;;;;4939553;29;20493;-76
2022/06/22 03:39:21;;;;;;;1999.90;999.90;;;18.30;99.90;;;;;;4957357;29;20363;-73
2022/06/22 03:41:53;;;;;;;1999.90;999.90;;;18.20;99.90;;;;;;4957470;28;20031;-76
2022/06/22 03:44:27;;;;;;;1999.90;999.90;;;18.10;99.90;;;;;;4939472;29;20114;-74
2022/06/22 03:47:10;;;;;;;1999.90;999.90;;;18.00;99.90;;;;;;4948873;29;20535;-73
2022/06/22 03:49:42;;;;;;;1999.90;999.90;;;18.10;99.90;;;;;;4956923;29;20050;-73
2022/06/22 03:52:18;;;;;;;1999.90;999.90;;;18.10;99.90;;;;;;4956222;29;20031;-75
2022/06/22 03:55:00;;;;;;;1999.90;999.90;;;18.10;99.90;;;;;;4956649;28;20045;-73
2022/06/22 03:57:29;;;;;;;1999.90;999.90;;;18.10;99.90;;;;;;4950938;29;20519;-75
2022/06/22 03:59:56;;;;;;;1999.90;999.90;;;18.10;99.90;;;;;;4956716;29;20037;-76
2022/06/22 04:02:25;;;;;;;1999.90;999.90;;;18.10;99.90;;;;;;4956307;29;20050;-76
2022/06/22 04:04:54;;;;;;;1999.90;999.90;;;18.10;99.90;;;;;;4956610;29;20025;-76
2022/06/22 04:07:21;;;;;;;1999.90;999.90;;;18.10;99.90;;;;;;4956465;29;20034;-76
2022/06/22 04:09:55;;;;;;;1999.90;999.90;;;18.10;99.90;;;;;;4939408;29;20028;-73
2022/06/22 04:12:54;;;;;;;1999.90;999.90;;;18.10;99.90;;;;;;4956082;29;20110;-76
2022/06/22 04:15:36;;;;;;;1999.90;999.90;;;18.10;99.90;;;;;;4913456;29;20114;-72
2022/06/22 04:18:18;;;;;;;1999.90;999.90;;;18.10;99.90;;;;;;4956330;29;20134;-76
2022/06/22 04:20:55;;;;;;;1999.90;999.90;;;18.00;99.90;;;;;;4955490;29;20023;-76
2022/06/22 04:23:33;;;;;;;1999.90;999.90;;;18.00;99.90;;;;;;4956555;29;20071;-72
2022/06/22 04:26:06;;;;;;;1999.90;999.90;;;17.90;99.90;;;;;;4956478;29;20031;-77
2022/06/22 04:28:34;;;;;;;1999.90;999.90;;;17.80;99.90;;;;;;4956011;29;20019;-76
2022/06/22 04:31:02;;;;;;;1999.90;999.90;;;17.80;99.90;;;;;;4956325;29;20024;-72
2022/06/22 04:33:31;;;;;;;1999.90;999.90;;;17.70;99.90;;;;;;4955199;29;20027;-75
2022/06/22 04:36:03;;;;;;;1999.90;999.90;;;17.70;99.90;;;;;;4955925;29;20042;-72
2022/06/22 04:38:31;;;;;;;1999.90;999.90;;;17.70;99.90;;;;;;4943703;29;20066;-71
2022/06/22 04:41:23;;;;;;;1999.90;999.90;;;17.80;99.90;;;;;;4944244;29;20051;-72
2022/06/22 04:43:49;;;;;;;1999.90;999.90;;;17.90;99.90;;;;;;4946310;29;20483;-76
2022/06/22 04:46:23;;;;;;;1999.90;999.90;;;17.80;99.90;;;;;;4955115;29;20023;-77
2022/06/22 04:48:52;;;;;;;1999.90;999.90;;;17.90;99.90;;;;;;4955226;28;20024;-77
2022/06/22 04:51:26;;;;;;;1999.90;999.90;;;17.80;99.90;;;;;;4955534;29;20027;-76
2022/06/22 04:54:00;;;;;;;1999.90;999.90;;;17.80;99.90;;;;;;4955523;29;20503;-73
2022/06/22 04:56:33;;;;;;;1999.90;999.90;;;17.80;99.90;;;;;;4955772;29;20035;-73
2022/06/22 04:59:00;;;;;;;1999.90;999.90;;;17.80;99.90;;;;;;4955338;29;20078;-73
2022/06/22 05:01:45;;;;;;;1999.90;999.90;;;17.80;99.90;;;;;;4938231;29;20031;-73
2022/06/22 05:04:17;;;;;;;1999.90;999.90;;;17.80;99.90;;;;;;4954691;29;20394;-72
2022/06/22 05:06:51;;;;;;;1999.90;999.90;;;17.90;99.90;;;;;;4955427;29;20055;-72
2022/06/22 05:09:21;;;;;;;1999.90;999.90;;;17.90;99.90;;;;;;4955522;29;20033;-71
2022/06/22 05:11:48;;;;;;;1999.90;999.90;;;17.90;99.90;;;;;;4955010;29;20181;-77
2022/06/22 05:14:24;;;;;;;1999.90;999.90;;;17.90;99.90;;;;;;4955035;29;20023;-72
2022/06/22 05:17:02;;;;;;;1999.90;999.90;;;17.90;99.90;;;;;;4954952;29;20058;-71
2022/06/22 05:19:57;;;;;;;1999.90;999.90;;;17.90;99.90;;;;;;4955259;29;20494;-72
2022/06/22 05:22:23;;;;;;;1999.90;999.90;;;17.90;99.90;;;;;;4926591;29;20106;-76
2022/06/22 05:25:00;;;;;;;1999.90;999.90;;;17.80;99.90;;;;;;4937931;29;20498;-77
2022/06/22 05:27:34;;;;;;;1999.90;999.90;;;17.80;99.90;;;;;;4954836;29;20027;-71
2022/06/22 05:30:05;;;;;;;1999.90;999.90;;;17.80;99.90;;;;;;4957969;29;20030;-72
2022/06/22 05:32:42;;;;;;;1999.90;999.90;;;17.80;99.90;;;;;;4954636;29;20070;-77
2022/06/22 05:35:12;;;;;;;1999.90;999.90;;;17.80;99.90;;;;;;4951415;29;20578;-77
2022/06/22 05:37:43;;;;;;;1999.90;999.90;;;17.90;99.90;;;;;;4954571;29;20027;-72
2022/06/22 05:40:10;;;;;;;1999.90;999.90;;;17.90;99.90;;;;;;4954460;29;20026;-72
2022/06/22 05:42:36;;;;;;;1999.90;999.90;;;17.80;99.90;;;;;;4954711;28;20035;-77
2022/06/22 05:45:03;;;;;;;1999.90;999.90;;;17.80;99.90;;;;;;4954529;29;20027;-77
2022/06/22 05:47:32;;;;;;;1999.90;999.90;;;17.70;99.90;;;;;;4954723;29;20027;-77
2022/06/22 05:50:07;;;;;;;1999.90;999.90;;;17.70;99.90;;;;;;4954518;29;20027;-72
2022/06/22 05:52:40;;;;;;;1999.90;999.90;;;17.50;99.90;;;;;;4954281;29;20376;-77
2022/06/22 05:55:37;;;;;;;1999.90;999.90;;;17.40;99.90;;;;;;4954595;29;20130;-71
2022/06/22 05:58:13;;;;;;;1999.90;999.90;;;17.40;99.90;;;;;;4954575;29;20094;-77
2022/06/22 06:00:48;;;;;;;1999.90;999.90;;;17.30;99.90;;;;;;4954595;29;20066;-76
2022/06/22 06:03:30;;;;;;;1999.90;999.90;;;17.30;99.90;;;;;;4954553;29;20027;-76
2022/06/22 06:06:01;;;;;;;1999.90;999.90;;;17.20;99.90;;;;;;4954346;29;20061;-72
2022/06/22 06:08:39;;;;;;;1999.90;999.90;;;17.20;99.90;;;;;;4954370;29;20039;-71
2022/06/22 06:11:09;;;;;;;1999.90;999.90;;;17.10;99.90;;;;;;4949433;29;20033;-72
2022/06/22 06:13:39;;;;;;;1999.90;999.90;;;17.00;99.90;;;;;;4936737;29;20483;-70
2022/06/22 06:16:14;;;;;;;1999.90;999.90;;;17.10;99.90;;;;;;4946645;29;20062;-76
2022/06/22 06:18:43;;;;;;;1999.90;999.90;;;17.20;99.90;;;;;;4938289;29;20038;-76
2022/06/22 06:21:18;;;;;;;1999.90;999.90;;;17.50;99.90;;;;;;4955531;28;20039;-70
2022/06/22 06:24:02;;;;;;;1999.90;999.90;;;17.80;99.90;;;;;;4951155;29;20027;-78
2022/06/22 06:29:53;;;;;;;1999.90;999.90;;;17.60;99.90;;;;;;4942941;28;20043;-77
2022/06/22 06:32:27;;;;;;;1999.90;999.90;;;17.60;99.90;;;;;;4951558;29;20058;-77
2022/06/22 06:35:19;;;;;;;1999.90;999.90;;;17.60;99.90;;;;;;4956554;28;20031;-71
2022/06/22 06:38:14;;;;;;;1999.90;999.90;;;17.60;99.90;;;;;;4948289;29;20031;-77
2022/06/22 06:41:01;;;;;;;1999.90;999.90;;;17.60;99.90;;;;;;4923483;28;20402;-71
2022/06/22 06:43:36;;;;;;;1999.90;999.90;;;17.70;99.90;;;;;;4955972;28;20053;-70
2022/06/22 06:46:23;;;;;;;1999.90;999.90;;;17.70;99.90;;;;;;4952648;29;20035;-70
2022/06/22 06:49:01;;;;;;;1999.90;999.90;;;17.70;99.90;;;;;;4937554;29;20074;-71
2022/06/22 06:51:30;;;;;;;1999.90;999.90;;;17.80;99.90;;;;;;4949894;28;20437;-78
2022/06/22 06:54:06;;;;;;;1999.90;999.90;;;17.90;99.90;;;;;;4952029;29;20517;-77
2022/06/22 06:57:04;;;;;;;1999.90;999.90;;;18.00;99.90;;;;;;4952474;29;20031;-77
2022/06/22 06:59:31;;;;;;;1999.90;999.90;;;18.00;99.90;;;;;;4934378;29;20029;-76
2022/06/22 07:02:02;;;;;;;1999.90;999.90;;;18.00;99.90;;;;;;4952791;29;20037;-72
2022/06/22 07:04:33;;;;;;;1999.90;999.90;;;18.10;99.90;;;;;;4950833;29;20376;-72
2022/06/22 07:07:18;;;;;;;1999.90;999.90;;;18.00;99.90;;;;;;4943792;29;20169;-77
2022/06/22 07:09:47;;;;;;;1999.90;999.90;;;18.00;99.90;;;;;;4952688;29;20038;-77
2022/06/22 07:12:51;;;;;;;1999.90;999.90;;;18.00;99.90;;;;;;4949354;28;20487;-72
2022/06/22 07:15:22;;;;;;;1999.90;999.90;;;18.00;99.90;;;;;;4949148;29;20467;-72
2022/06/22 07:17:49;;;;;;;1999.90;999.90;;;18.00;99.90;;;;;;4952690;29;20046;-78
2022/06/22 07:20:24;;;;;;;1999.90;999.90;;;18.10;99.90;;;;;;4955103;29;20545;-76
2022/06/22 07:23:10;;;;;;;1999.90;999.90;;;18.10;99.90;;;;;;4954419;28;20075;-75
2022/06/22 07:25:47;;;;;;;1999.90;999.90;;;18.10;99.90;;;;;;4951723;28;20027;-75
2022/06/22 07:28:25;;;;;;;1999.90;999.90;;;18.20;99.90;;;;;;4965594;28;20027;-72
2022/06/22 07:31:06;;;;;;;1999.90;999.90;;;18.20;99.90;;;;;;4958242;28;20487;-75
2022/06/22 07:33:51;;;;;;;1999.90;999.90;;;18.20;99.90;;;;;;4942448;29;20059;-75
2022/06/22 07:36:21;;;;;;;1999.90;999.90;;;18.20;99.90;;;;;;4956704;28;20034;-75
2022/06/22 07:38:58;;;;;;;1999.90;999.90;;;18.30;99.90;;;;;;4958891;28;20031;-73
2022/06/22 07:41:26;;;;;;;1999.90;999.90;;;18.30;99.90;;;;;;4958228;28;20430;-72
2022/06/22 07:44:11;;;;;;;1999.90;999.90;;;18.30;99.90;;;;;;4944412;28;20137;-75
2022/06/22 07:46:51;;;;;;;1999.90;999.90;;;18.40;99.90;;;;;;4956644;28;20031;-75
2022/06/22 07:49:23;;;;;;;1999.90;999.90;;;18.50;99.90;;;;;;4954473;28;20042;-75
2022/06/22 07:51:58;;;;;;;1999.90;999.90;;;18.40;99.90;;;;;;4954047;29;20027;-72
2022/06/22 07:54:31;;;;;;;1999.90;999.90;;;18.40;99.90;;;;;;4960458;28;20110;-74
2022/06/22 07:57:24;;;;;;;1999.90;999.90;;;18.50;99.90;;;;;;4955021;29;20526;-73
2022/06/22 07:59:49;;;;;;;;;;;18.60;99.90;;;;;;4947581;28;20054;-75
2022/06/22 08:02:18;;;;;;;1999.90;999.90;;;18.60;99.90;;;;;;4953798;28;20370;-73
2022/06/22 08:05:13;;;;;;;1999.90;999.90;;;18.70;99.90;;;;;;4954392;28;20039;-73
2022/06/22 08:07:59;;;;;;;1999.90;999.90;;;18.70;99.90;;;;;;4946884;29;20051;-73
2022/06/22 08:10:42;;;;;;;1999.90;999.90;;;18.90;99.90;;;;;;4953976;28;20118;-75
2022/06/22 08:13:13;;;;;;;;;;;18.90;99.90;;;;;;4954249;28;20031;-75
2022/06/22 08:15:45;;;;;;;1999.90;999.90;;;18.90;99.90;;;;;;4946971;28;19955;-73
2022/06/22 08:18:13;;;;;;;1999.90;999.90;;;18.90;99.90;;;;;;4961634;28;20360;-73
2022/06/22 08:20:42;;;;;;;1999.90;999.90;;;19.00;99.90;;;;;;4963037;28;20046;-73
2022/06/22 08:23:18;;;;;;;1999.90;999.90;;;19.00;99.90;;;;;;4950566;28;20058;-74
2022/06/22 08:25:47;;;;;;;1999.90;999.90;;;19.00;99.90;;;;;;4964534;28;20031;-75
2022/06/22 08:28:19;;;;;;;1999.90;999.90;;;19.10;99.90;;;;;;4941143;28;20114;-75
2022/06/22 08:30:47;;;;;;;1999.90;999.90;;;19.10;99.90;;;;;;4953815;28;20031;-73
2022/06/22 08:33:15;;;;;;;1999.90;999.90;;;19.00;99.90;;;;;;4961440;28;20046;-75
2022/06/22 08:35:50;;;;;;;1999.90;999.90;;;19.00;99.90;;;;;;4940001;28;20035;-73
2022/06/22 08:38:32;;;;;;;1999.90;999.90;;;19.00;99.90;;;;;;4959818;28;20058;-74
2022/06/22 08:41:18;;;;;;;1999.90;999.90;;;19.00;99.90;;;;;;4953995;28;20374;-73
2022/06/22 08:43:54;;;;;;;1999.90;999.90;;;19.10;99.90;;;;;;4954059;28;20046;-73
2022/06/22 08:46:29;;;;;;;1999.90;999.90;;;19.10;99.90;;;;;;4956667;28;20031;-73
2022/06/22 08:49:23;;;;;;;1999.90;999.90;;;19.10;99.90;;;;;;4955174;28;20042;-75
2022/06/22 08:52:18;;;;;;;1999.90;999.90;;;19.10;99.90;;;;;;4935912;29;20062;-75
2022/06/22 08:55:00;;;;;;;1999.90;999.90;;;19.20;99.90;;;;;;4899955;29;20152;-73
2022/06/22 08:57:45;;;;;;;1999.90;999.90;;;19.30;99.90;;;;;;4932418;29;20039;-73
2022/06/22 09:00:23;;;;;;;1999.90;999.90;;;19.50;99.90;;;;;;4934391;29;20027;-73
2022/06/22 09:03:07;;;;;;;1999.90;999.90;;;19.60;99.90;;;;;;4927649;29;20119;-73
2022/06/22 09:05:36;;;;;;;1999.90;999.90;;;19.70;99.90;;;;;;4943542;29;20050;-76
2022/06/22 09:08:28;;;;;;;1999.90;999.90;;;19.80;99.90;;;;;;4943356;29;20031;-74
2022/06/22 09:11:02;;;;;;;1999.90;999.90;;;20.00;99.90;;;;;;4934315;29;20036;-74
2022/06/22 09:13:49;;;;;;;1999.90;999.90;;;20.30;99.90;;;;;;4941448;29;20027;-76
2022/06/22 09:16:30;;;;;;;1999.90;999.90;;;20.50;99.90;;;;;;4934229;29;20032;-76
2022/06/22 09:19:30;;;;;;;1999.90;999.90;;;20.80;99.90;;;;;;4944913;29;20110;-74
2022/06/22 09:22:23;;;;;;;1999.90;999.90;;;20.90;99.90;;;;;;4938037;29;20039;-74
2022/06/22 09:25:16;;;;;;;1999.90;999.90;;;21.20;99.90;;;;;;4936847;29;20035;-74
2022/06/22 09:27:54;;;;;;;1999.90;999.90;;;21.70;99.90;;;;;;4939097;29;20042;-76
2022/06/22 09:30:39;;;;;;;1999.90;999.90;;;22.30;99.90;;;;;;4936714;29;20695;-74
2022/06/22 09:33:19;;;;;;;1999.90;999.90;;;22.80;99.90;;;;;;4944466;29;20436;-76
2022/06/22 09:36:16;;;;;;;1999.90;999.90;;;23.30;99.90;;;;;;4937476;29;20032;-74
2022/06/22 09:38:49;;;;;;;1999.90;999.90;;;23.80;99.90;;;;;;4930724;29;20106;-76
2022/06/22 09:41:50;;;;;;;1999.90;999.90;;;23.90;99.90;;;;;;4941681;29;20037;-74
2022/06/22 09:44:19;;;;;;;1999.90;999.90;;;23.30;99.90;;;;;;4934184;29;20059;-74
2022/06/22 09:47:06;;;;;;;1999.90;999.90;;;23.30;99.90;;;;;;4942529;29;20039;-75
2022/06/22 09:50:09;;;;;;;1999.90;999.90;;;23.40;99.90;;;;;;4937841;29;20367;-74
2022/06/22 09:53:11;;;;;;;1999.90;999.90;;;23.00;99.90;;;;;;4936081;29;20027;-74
2022/06/22 09:58:45;;;;;;;1999.90;999.90;;;22.40;99.90;;;;;;4936866;29;20070;-76
2022/06/22 10:02:06;;;;;;;1999.90;999.90;;;23.20;99.90;;;;;;4936590;29;20027;-74
2022/06/22 10:05:07;;;;;;;1999.90;999.90;;;23.50;99.90;;;;;;4906681;29;20032;-76
2022/06/22 10:07:45;;;;;;;1999.90;999.90;;;23.40;99.90;;;;;;4901850;29;20044;-76
2022/06/22 10:10:32;;;;;;;1999.90;999.90;;;23.00;99.90;;;;;;4904535;29;20040;-75
2022/06/22 10:13:07;;;;;;;1999.90;999.90;;;22.90;99.90;;;;;;4893072;29;20095;-74
2022/06/22 10:16:05;;;;;;;1999.90;999.90;;;23.20;99.90;;;;;;4902106;29;20556;-75
2022/06/22 10:19:07;;;;;;;1999.90;999.90;;;23.70;99.90;;;;;;4901282;29;20685;-77
2022/06/22 10:21:59;;;;;;;1999.90;999.90;;;24.00;99.90;;;;;;4887475;29;20501;-76
2022/06/22 10:24:48;;;;;;;1999.90;999.90;;;24.40;99.90;;;;;;4903795;29;20032;-76
2022/06/22 10:27:19;;;;;;;1999.90;999.90;;;25.30;99.90;;;;;;4893285;29;20044;-76
2022/06/22 10:29:51;;;;;;;1999.90;999.90;;;25.70;99.90;;;;;;4896748;29;20077;-75
2022/06/22 10:32:33;;;;;;;1999.90;999.90;;;26.20;99.90;;;;;;4904444;29;20078;-76
2022/06/22 10:34:59;;;;;;;1999.90;999.90;;;27.70;99.90;;;;;;4897584;29;20613;-76
2022/06/22 10:37:30;;;;;;;1999.90;999.90;;;27.30;99.90;;;;;;4905193;28;20060;-76
2022/06/22 10:40:08;;;;;;;1999.90;999.90;;;27.00;99.90;;;;;;4930209;29;20114;-75
2022/06/22 10:45:59;;;;;;;1999.90;999.90;;;26.80;99.90;;;;;;4935475;29;20046;-77
2022/06/22 10:48:43;;;;;;;1999.90;999.90;;;26.60;99.90;;;;;;4938790;29;20035;-76
2022/06/22 10:51:18;;;;;;;1999.90;999.90;;;28.20;99.90;;;;;;4928247;29;20049;-76
2022/06/22 10:53:43;;;;;;;1999.90;999.90;;;28.60;97.20;;;;;;4940451;28;20047;-76
2022/06/22 10:56:47;;;;;;;1999.90;999.90;;;28.90;97.10;;;;;;4957319;28;20118;-77
2022/06/22 10:59:53;;;;;;;1999.90;999.90;;;30.40;95.30;;;;;;4918684;28;20049;-77
2022/06/22 11:02:59;;;;;;;1999.90;999.90;;;30.40;94.80;;;;;;4925145;28;20058;-77
2022/06/22 11:05:47;;;;;;;1999.90;999.90;;;29.80;96.50;;;;;;4935657;29;20035;-77
2022/06/22 11:08:24;;;;;;;1999.90;999.90;;;29.90;96.10;;;;;;4952941;28;20031;-77
2022/06/22 11:11:23;;;;;;;1999.90;999.90;;;29.00;97.10;;;;;;4952944;29;20386;-76
2022/06/22 11:13:58;;;;;;;1999.90;999.90;;;27.40;99.80;;;;;;4953823;28;20055;-76
2022/06/22 11:16:26;;;;;;;1999.90;999.90;;;26.30;99.90;;;;;;4951544;28;20031;-76
2022/06/22 11:19:01;;;;;;;1999.90;999.90;;;26.20;99.90;;;;;;4953811;28;20043;-75
2022/06/22 11:21:45;;;;;;;1999.90;999.90;;;27.30;98.90;;;;;;4950423;28;20041;-77
2022/06/22 11:24:27;;;;;;;1999.90;999.90;;;27.20;99.90;;;;;;4951164;28;20113;-76
2022/06/22 11:33:02;;;;;;;1999.90;999.90;;;28.30;96.90;;;;;;4955529;28;20553;-76
2022/06/22 11:35:53;;;;;;;1999.90;999.90;;;27.00;98.20;;;;;;4953443;28;20028;-77
2022/06/22 11:38:39;;;;;;;1999.90;999.90;;;25.60;99.90;;;;;;4954259;28;20166;-77
2022/06/22 11:41:34;;;;;;;1999.90;999.90;;;24.80;99.90;;;;;;4957298;28;20070;-77
2022/06/22 11:44:21;;;;;;;1999.90;999.90;;;24.10;99.90;;;;;;4916874;28;20050;-76
2022/06/22 11:46:54;;;;;;;1999.90;999.90;;;23.70;99.90;;;;;;4938339;28;20035;-75
2022/06/22 11:49:38;;;;;;;;;;;23.60;99.90;;;;;;4959409;28;20102;-76
2022/06/22 11:52:26;;;;;;;1999.90;999.90;;;25.30;99.70;;;;;;4958809;28;19987;-77
2022/06/22 11:55:12;;;;;;;1999.90;999.90;;;25.80;98.80;;;;;;4959073;28;20568;-76
2022/06/22 11:57:56;;;;;;;1999.90;999.90;;;25.60;98.40;;;;;;4960133;28;20046;-77
2022/06/22 12:00:52;;;;;;;1999.90;999.90;;;25.50;98.80;;;;;;4956405;28;20027;-77
2022/06/22 12:03:45;;;;;;;1999.90;999.90;;;25.00;99.80;;;;;;4946570;28;20789;-75
2022/06/22 12:06:31;;;;;;;1999.90;999.90;;;24.30;99.70;;;;;;4942229;28;20495;-76
2022/06/22 12:09:00;;;;;;;1999.90;999.90;;;24.40;99.90;;;;;;4954641;28;20102;-77
2022/06/22 12:11:47;;;;;;;1999.90;999.90;;;24.70;99.90;;;;;;4957019;28;20594;-78
2022/06/22 12:17:18;;;;;;;1999.90;999.90;;;24.40;99.90;;;;;;4950954;29;20067;-76
2022/06/22 12:19:58;;;;;;;1999.90;999.90;;;23.80;99.90;;;;;;4955468;28;20448;-75
2022/06/22 12:22:33;;;;;;;1999.90;999.90;;;23.40;99.90;;;;;;4951444;28;20061;-77
2022/06/22 12:25:11;;;;;;;1999.90;999.90;;;23.70;99.90;;;;;;4952821;28;20032;-79
2022/06/22 12:27:41;;;;;;;1999.90;999.90;;;24.80;99.90;;;;;;4956657;28;20039;-77
2022/06/22 12:30:13;;;;;;;1999.90;999.90;;;25.30;99.50;;;;;;4950369;28;20019;-79
2022/06/22 12:32:57;;;;;;;1999.90;999.90;;;25.30;99.90;;;;;;4937456;28;20118;-77
2022/06/22 12:35:36;;;;;;;1999.90;999.90;;;25.50;99.90;;;;;;4935717;29;20023;-78
2022/06/22 12:38:34;;;;;;;1999.90;999.90;;;24.80;99.50;;;;;;4961379;28;20098;-78
2022/06/22 12:41:26;;;;;;;1999.90;999.90;;;24.40;99.90;;;;;;4954237;28;20015;-78
2022/06/22 12:44:13;;;;;;;1999.90;999.90;;;24.10;99.90;;;;;;4950482;28;20154;-78
2022/06/22 12:47:06;;;;;;;1999.90;999.90;;;23.50;99.90;;;;;;4954212;28;20035;-78
2022/06/22 12:49:46;;;;;;;1999.90;999.90;;;23.20;99.90;;;;;;4950087;28;20514;-77
2022/06/22 12:52:19;;;;;;;1999.90;999.90;;;22.80;99.90;;;;;;4952624;28;20134;-78
2022/06/22 12:54:52;;;;;;;1999.90;999.90;;;22.90;99.90;;;;;;4940285;29;20396;-78
2022/06/22 12:57:29;;;;;;;1999.90;999.90;;;23.50;99.90;;;;;;4939323;29;20131;-77
2022/06/22 13:00:09;;;;;;;1999.90;999.90;;;23.00;99.90;;;;;;4943217;29;20043;-77
2022/06/22 13:02:36;;;;;;;1999.90;999.90;;;22.70;99.90;;;;;;4928420;29;20123;-78
2022/06/22 13:05:21;;;;;;;1999.90;999.90;;;22.60;99.90;;;;;;4929073;29;20020;-78
2022/06/22 13:07:52;;;;;;;1999.90;999.90;;;23.00;99.90;;;;;;4937891;29;20507;-77
2022/06/22 13:10:23;;;;;;;1999.90;999.90;;;23.40;99.90;;;;;;4938262;29;20586;-78
2022/06/22 13:13:08;;;;;;;1999.90;999.90;;;24.80;99.90;;;;;;4942936;29;20023;-78
2022/06/22 13:15:41;;;;;;;1999.90;999.90;;;25.80;99.90;;;;;;4921334;29;20487;-79
2022/06/22 13:18:34;;;;;;;1999.90;999.90;;;26.20;99.90;;;;;;4945282;29;20031;-78